createdAt,value
2019-01-14T00:02:26.929Z,7.01
2019-01-14T00:04:55.721Z,7.06
2019-01-14T00:07:23.079Z,7.01
2019-01-14T00:09:50.323Z,6.89
2019-01-14T00:12:17.550Z,6.89
2019-01-14T00:14:44.766Z,6.87
2019-01-14T00:17:12.108Z,6.96
2019-01-14T00:19:39.340Z,6.85
2019-01-14T00:22:06.808Z,6.74
2019-01-14T00:24:34.050Z,6.76
2019-01-14T00:27:01.296Z,6.82
2019-01-14T00:29:28.564Z,6.67
2019-01-14T00:31:55.811Z,6.70
2019-01-14T00:34:23.586Z,6.78
2019-01-14T00:36:50.877Z,6.77
2019-01-14T00:39:18.085Z,6.75
2019-01-14T00:41:45.290Z,6.68
2019-01-14T00:44:12.529Z,6.74
2019-01-14T00:46:39.748Z,6.83
2019-01-14T00:49:07.003Z,6.76
2019-01-14T00:51:34.234Z,6.72
2019-01-14T00:54:01.469Z,6.73
2019-01-14T00:56:28.707Z,6.86
2019-01-14T00:58:55.942Z,6.63
2019-01-14T01:01:23.184Z,6.58
2019-01-14T01:03:50.499Z,6.60
2019-01-14T01:06:24.457Z,6.60
2019-01-14T01:08:46.938Z,6.71
2019-01-14T01:11:14.194Z,6.56
2019-01-14T01:13:41.419Z,6.64
2019-01-14T01:16:08.632Z,6.72
2019-01-14T01:18:35.862Z,6.76
2019-01-14T01:21:03.786Z,6.71
2019-01-14T01:23:31.106Z,6.67
2019-01-14T01:25:58.341Z,6.65
2019-01-14T01:28:25.695Z,6.64
2019-01-14T01:30:52.939Z,6.63
2019-01-14T01:33:20.155Z,6.58
2019-01-14T01:35:47.356Z,6.53
2019-01-14T01:38:14.667Z,6.70
2019-01-14T01:40:41.912Z,6.61
2019-01-14T01:43:09.138Z,6.64
2019-01-14T01:45:36.383Z,6.59
2019-01-14T01:48:03.707Z,6.58
2019-01-14T01:50:30.952Z,6.53
2019-01-14T01:52:58.180Z,6.50
2019-01-14T01:55:25.403Z,6.44
2019-01-14T01:57:52.705Z,6.44
2019-01-14T02:00:20.959Z,6.44
2019-01-14T02:02:49.013Z,6.44
2019-01-14T02:05:16.679Z,6.48
2019-01-14T02:07:44.077Z,6.46
2019-01-14T02:10:14.130Z,6.36
2019-01-14T02:12:41.379Z,6.40
2019-01-14T02:15:09.973Z,6.37
2019-01-14T02:17:37.212Z,6.37
2019-01-14T02:20:05.110Z,6.34
2019-01-14T02:22:32.386Z,6.31
2019-01-14T02:24:59.659Z,6.46
2019-01-14T02:27:26.880Z,6.42
2019-01-14T02:29:54.112Z,6.48
2019-01-14T02:32:21.352Z,6.41
2019-01-14T02:34:48.666Z,6.43
2019-01-14T02:37:15.935Z,6.41
2019-01-14T02:39:43.428Z,6.46
2019-01-14T02:42:10.655Z,6.41
2019-01-14T02:44:37.921Z,6.44
2019-01-14T02:47:05.217Z,6.48
2019-01-14T02:49:32.471Z,6.48
2019-01-14T02:51:59.729Z,6.43
2019-01-14T02:54:27.045Z,6.53
2019-01-14T02:56:54.315Z,6.57
2019-01-14T02:59:21.584Z,6.53
2019-01-14T03:01:48.816Z,6.54
2019-01-14T03:04:16.053Z,6.46
2019-01-14T03:06:43.279Z,6.60
2019-01-14T03:09:10.507Z,6.68
2019-01-14T03:11:37.753Z,6.61
2019-01-14T03:14:04.963Z,6.64
2019-01-14T03:16:32.179Z,6.67
2019-01-14T03:18:59.652Z,6.62
2019-01-14T03:21:26.898Z,6.62
2019-01-14T03:23:54.166Z,6.62
2019-01-14T03:26:21.394Z,6.66
2019-01-14T03:28:48.674Z,6.59
2019-01-14T03:31:15.896Z,6.62
2019-01-14T03:33:43.112Z,6.53
2019-01-14T03:36:10.449Z,6.59
2019-01-14T03:38:37.665Z,6.52
2019-01-14T03:41:05.300Z,6.54
2019-01-14T03:43:32.634Z,6.62
2019-01-14T03:45:59.851Z,6.56
2019-01-14T03:48:27.121Z,6.55
2019-01-14T03:50:54.339Z,6.45
2019-01-14T03:53:21.565Z,6.46
2019-01-14T03:55:49.095Z,6.46
2019-01-14T03:58:16.325Z,6.45
2019-01-14T04:00:43.629Z,6.45
2019-01-14T04:03:10.965Z,6.54
2019-01-14T04:05:38.299Z,6.49
2019-01-14T04:08:05.822Z,6.51
2019-01-14T04:10:34.982Z,6.46
2019-01-14T04:13:02.441Z,6.44
2019-01-14T04:15:29.774Z,6.39
2019-01-14T04:17:58.509Z,6.45
2019-01-14T04:20:26.920Z,6.53
2019-01-14T04:22:54.180Z,6.53
2019-01-14T04:25:21.391Z,6.42
2019-01-14T04:27:48.665Z,6.41
2019-01-14T04:30:20.955Z,6.44
2019-01-14T04:32:48.365Z,6.46
2019-01-14T04:35:16.639Z,6.46
2019-01-14T04:37:43.859Z,6.48
2019-01-14T04:40:11.617Z,6.43
2019-01-14T04:42:38.982Z,6.34
2019-01-14T04:45:07.350Z,6.07
2019-01-14T04:47:34.667Z,6.01
2019-01-14T04:50:01.921Z,5.89
2019-01-14T04:52:29.161Z,5.93
2019-01-14T04:54:56.379Z,5.86
2019-01-14T04:57:23.679Z,5.81
2019-01-14T04:59:50.888Z,5.92
2019-01-14T05:02:18.745Z,5.82
2019-01-14T05:04:45.966Z,5.77
2019-01-14T05:07:13.495Z,5.57
2019-01-14T05:09:41.991Z,5.48
2019-01-14T05:12:09.192Z,5.47
2019-01-14T05:14:39.043Z,5.48
2019-01-14T05:17:06.270Z,5.60
2019-01-14T05:19:33.556Z,5.51
2019-01-14T05:22:00.793Z,5.63
2019-01-14T05:24:28.047Z,5.64
2019-01-14T05:26:55.287Z,5.58
2019-01-14T05:29:22.513Z,5.53
2019-01-14T05:31:49.728Z,5.41
2019-01-14T05:34:16.975Z,5.28
2019-01-14T05:36:44.219Z,5.10
2019-01-14T05:39:11.447Z,5.06
2019-01-14T05:41:38.657Z,4.97
2019-01-14T05:44:05.897Z,4.93
2019-01-14T05:46:33.122Z,4.85
2019-01-14T05:49:00.341Z,4.88
2019-01-14T05:51:27.589Z,4.94
2019-01-14T05:53:54.809Z,4.97
2019-01-14T05:56:22.029Z,5.06
2019-01-14T05:58:49.274Z,5.05
2019-01-14T06:01:16.489Z,5.01
2019-01-14T06:03:43.748Z,4.89
2019-01-14T06:06:11.003Z,4.91
2019-01-14T06:08:38.280Z,4.93
2019-01-14T06:11:05.462Z,4.94
2019-01-14T06:13:32.648Z,4.93
2019-01-14T06:15:59.883Z,4.99
2019-01-14T06:18:27.092Z,5.04
2019-01-14T06:20:54.338Z,5.00
2019-01-14T06:23:21.648Z,4.99
2019-01-14T06:25:48.933Z,5.09
2019-01-14T06:28:16.151Z,5.03
2019-01-14T06:30:43.381Z,5.09
2019-01-14T06:33:10.590Z,5.12
2019-01-14T06:35:37.836Z,5.23
2019-01-14T06:38:05.059Z,5.16
2019-01-14T06:40:32.594Z,5.21
2019-01-14T06:42:59.835Z,5.15
2019-01-14T06:45:27.077Z,5.14
2019-01-14T06:47:55.399Z,5.20
2019-01-14T06:50:22.681Z,5.17
2019-01-14T06:52:49.954Z,4.79
2019-01-14T06:55:17.968Z,4.67
2019-01-14T06:57:45.210Z,4.60
2019-01-14T07:00:15.484Z,4.62
2019-01-14T07:02:42.719Z,4.60
2019-01-14T07:05:10.055Z,4.39
2019-01-14T07:07:37.717Z,4.24
2019-01-14T07:10:06.521Z,4.13
2019-01-14T07:12:34.012Z,4.10
2019-01-14T07:15:01.228Z,4.13
2019-01-14T07:17:28.459Z,4.12
2019-01-14T07:19:55.691Z,4.25
2019-01-14T07:22:22.932Z,4.33
2019-01-14T07:24:50.220Z,4.42
2019-01-14T07:27:17.444Z,4.51
2019-01-14T07:29:44.697Z,4.55
2019-01-14T07:32:11.924Z,4.61
2019-01-14T07:34:39.195Z,4.67
2019-01-14T07:37:06.450Z,4.75
2019-01-14T07:39:33.664Z,4.81
2019-01-14T07:42:00.886Z,4.81
2019-01-14T07:44:28.132Z,4.88
2019-01-14T07:46:55.337Z,4.78
2019-01-14T07:49:22.554Z,4.63
2019-01-14T07:51:50.165Z,4.53
2019-01-14T07:54:17.371Z,4.44
2019-01-14T07:56:44.975Z,4.44
2019-01-14T07:59:12.327Z,4.32
2019-01-14T08:01:39.532Z,4.37
2019-01-14T08:04:06.773Z,4.41
2019-01-14T08:06:34.025Z,4.49
2019-01-14T08:09:01.312Z,4.57
2019-01-14T08:11:28.527Z,4.66
2019-01-14T08:13:55.852Z,4.71
2019-01-14T08:16:23.043Z,4.74
2019-01-14T08:18:50.458Z,4.83
2019-01-14T08:21:17.707Z,4.83
2019-01-14T08:23:45.046Z,4.93
2019-01-14T08:26:13.650Z,4.97
2019-01-14T08:28:41.131Z,5.01
2019-01-14T08:31:08.429Z,5.05
2019-01-14T08:33:35.691Z,5.11
2019-01-14T08:36:07.060Z,5.14
2019-01-14T08:38:34.275Z,5.25
2019-01-14T08:41:01.889Z,5.25
2019-01-14T08:43:31.900Z,5.31
2019-01-14T08:45:59.816Z,5.44
2019-01-14T08:48:28.651Z,5.41
2019-01-14T08:50:57.239Z,5.39
2019-01-14T08:53:24.625Z,5.48
2019-01-14T08:55:51.901Z,5.53
2019-01-14T08:58:19.515Z,5.49
2019-01-14T09:00:46.997Z,5.52
2019-01-14T09:03:14.285Z,5.53
2019-01-14T09:05:42.701Z,5.46
2019-01-14T09:08:09.999Z,5.50
2019-01-14T09:10:37.259Z,5.50
2019-01-14T09:13:04.594Z,5.44
2019-01-14T09:15:31.810Z,5.06
2019-01-14T09:18:02.886Z,4.86
2019-01-14T09:20:33.268Z,4.96
2019-01-14T09:23:00.582Z,4.98
2019-01-14T09:25:27.859Z,4.84
2019-01-14T09:27:55.092Z,4.96
2019-01-14T09:30:24.464Z,5.07
2019-01-14T09:32:52.095Z,5.05
2019-01-14T09:35:19.448Z,5.09
2019-01-14T09:37:46.967Z,5.08
2019-01-14T09:40:15.921Z,5.11
2019-01-14T09:42:45.230Z,5.10
2019-01-14T09:45:13.828Z,5.13
2019-01-14T09:47:41.664Z,5.09
2019-01-14T09:50:16.344Z,5.13
2019-01-14T09:52:43.657Z,5.11
2019-01-14T09:55:13.055Z,5.21
2019-01-14T09:57:40.514Z,5.32
2019-01-14T10:00:08.655Z,5.47
2019-01-14T10:02:36.194Z,5.46
2019-01-14T10:05:05.039Z,5.48
2019-01-14T10:07:32.276Z,5.39
2019-01-14T10:10:00.098Z,5.51
2019-01-14T10:12:27.381Z,5.57
2019-01-14T10:14:54.680Z,4.96
2019-01-14T10:17:25.475Z,4.46
2019-01-14T10:19:52.691Z,4.58
2019-01-14T10:22:19.937Z,4.60
2019-01-14T10:24:47.225Z,4.59
2019-01-14T10:27:14.621Z,4.60
2019-01-14T10:29:41.950Z,4.63
2019-01-14T10:32:09.315Z,4.61
2019-01-14T10:34:36.529Z,4.78
2019-01-14T10:37:03.881Z,4.89
2019-01-14T10:39:31.151Z,5.06
2019-01-14T10:41:58.374Z,5.17
2019-01-14T10:44:25.592Z,5.23
2019-01-14T10:46:52.868Z,5.38
2019-01-14T10:49:22.143Z,5.51
2019-01-14T10:51:49.509Z,5.52
2019-01-14T10:54:16.745Z,5.52
2019-01-14T10:56:44.303Z,5.53
2019-01-14T10:59:11.725Z,5.43
2019-01-14T11:01:39.087Z,5.44
2019-01-14T11:04:06.419Z,5.58
2019-01-14T11:06:33.633Z,5.68
2019-01-14T11:09:05.672Z,5.66
2019-01-14T11:11:30.402Z,5.45
2019-01-14T11:13:57.660Z,5.46
2019-01-14T11:16:26.063Z,5.43
2019-01-14T11:18:53.327Z,5.46
2019-01-14T11:21:20.563Z,5.41
2019-01-14T11:23:48.301Z,5.28
2019-01-14T11:26:15.898Z,5.28
2019-01-14T11:28:43.404Z,5.31
2019-01-14T11:31:10.712Z,5.34
2019-01-14T11:33:39.375Z,5.35
2019-01-14T11:36:06.734Z,5.43
2019-01-14T11:38:50.791Z,5.44
2019-01-14T11:41:18.925Z,5.49
2019-01-14T11:43:46.168Z,5.51
2019-01-14T11:46:13.427Z,5.55
2019-01-14T11:48:43.340Z,5.52
2019-01-14T11:51:10.722Z,5.52
2019-01-14T11:53:37.923Z,5.55
2019-01-14T11:56:05.157Z,5.53
2019-01-14T11:58:32.402Z,5.49
2019-01-14T12:00:59.601Z,5.56
2019-01-14T12:03:26.812Z,5.54
2019-01-14T12:05:54.088Z,5.65
2019-01-14T12:08:21.293Z,5.68
2019-01-14T12:10:48.519Z,5.71
2019-01-14T12:13:15.819Z,5.71
2019-01-14T12:15:43.107Z,5.74
2019-01-14T12:18:10.440Z,5.78
2019-01-14T12:20:37.678Z,5.75
2019-01-14T12:23:04.921Z,5.81
2019-01-14T12:25:32.288Z,5.82
2019-01-14T12:27:59.521Z,5.88
2019-01-14T12:30:29.653Z,5.82
2019-01-14T12:33:00.595Z,5.84
2019-01-14T12:35:30.890Z,5.83
2019-01-14T12:37:58.112Z,5.88
2019-01-14T12:40:25.411Z,5.83
2019-01-14T12:42:52.677Z,5.82
2019-01-14T12:45:22.475Z,5.80
2019-01-14T12:47:49.801Z,5.75
2019-01-14T12:50:17.183Z,5.76
2019-01-14T12:52:44.550Z,5.74
2019-01-14T12:55:12.110Z,5.76
2019-01-14T12:57:39.589Z,5.75
2019-01-14T13:00:10.892Z,5.71
2019-01-14T13:02:38.160Z,5.68
2019-01-14T13:05:07.052Z,5.76
2019-01-14T13:07:34.343Z,5.78
2019-01-14T13:10:02.155Z,5.78
2019-01-14T13:12:29.386Z,5.79
2019-01-14T13:14:56.671Z,5.82
2019-01-14T13:17:23.874Z,5.91
2019-01-14T13:19:51.144Z,5.97
2019-01-14T13:22:18.399Z,5.98
2019-01-14T13:24:45.728Z,5.93
2019-01-14T13:27:13.013Z,5.86
2019-01-14T13:29:40.253Z,5.87
2019-01-14T13:32:08.587Z,5.92
2019-01-14T13:34:38.337Z,5.89
2019-01-14T13:37:05.595Z,5.84
2019-01-14T13:39:34.175Z,5.72
2019-01-14T13:42:01.890Z,5.50
2019-01-14T13:44:29.114Z,5.36
2019-01-14T13:46:56.378Z,5.30
2019-01-14T13:49:23.584Z,5.22
2019-01-14T13:51:50.842Z,5.19
2019-01-14T13:54:18.146Z,5.31
2019-01-14T13:56:45.404Z,5.33
2019-01-14T13:59:12.666Z,5.34
2019-01-14T14:01:40.330Z,5.30
2019-01-14T14:04:07.618Z,5.33
2019-01-14T14:06:34.867Z,5.35
2019-01-14T14:09:04.039Z,5.37
2019-01-14T14:11:31.256Z,5.42
2019-01-14T14:13:58.658Z,5.27
2019-01-14T14:16:25.916Z,5.15
2019-01-14T14:18:53.173Z,4.93
2019-01-14T14:21:20.555Z,5.03
2019-01-14T14:23:47.765Z,5.05
2019-01-14T14:26:15.064Z,4.88
2019-01-14T14:28:42.331Z,4.60
2019-01-14T14:31:09.557Z,4.51
2019-01-14T14:33:36.801Z,4.55
2019-01-14T14:36:04.023Z,4.48
2019-01-14T14:38:31.270Z,4.56
2019-01-14T14:40:59.512Z,4.60
2019-01-14T14:43:26.746Z,4.72
2019-01-14T14:45:54.090Z,4.73
2019-01-14T14:48:21.362Z,4.78
2019-01-14T14:50:48.622Z,4.78
2019-01-14T14:53:16.088Z,4.88
2019-01-14T14:55:43.485Z,4.98
2019-01-14T14:58:10.689Z,5.09
2019-01-14T15:00:37.952Z,5.10
2019-01-14T15:03:05.244Z,5.18
2019-01-14T15:05:32.510Z,5.17
2019-01-14T15:07:59.743Z,5.20
2019-01-14T15:10:26.987Z,5.25
2019-01-14T15:12:54.215Z,5.33
2019-01-14T15:15:23.161Z,5.29
2019-01-14T15:17:50.416Z,5.31
2019-01-14T15:20:20.599Z,5.35
2019-01-14T15:22:47.913Z,5.41
2019-01-14T15:25:15.220Z,5.49
2019-01-14T15:27:42.710Z,5.44
2019-01-14T15:30:16.285Z,5.57
2019-01-14T15:32:43.558Z,5.49
2019-01-14T15:35:11.039Z,5.42
2019-01-14T15:37:39.275Z,5.29
2019-01-14T15:40:09.347Z,5.13
2019-01-14T15:42:37.753Z,5.14
2019-01-14T15:45:07.074Z,5.06
2019-01-14T15:47:34.321Z,5.07
2019-01-14T15:50:01.580Z,5.15
2019-01-14T15:52:28.837Z,5.20
2019-01-14T15:54:56.117Z,5.30
2019-01-14T15:57:23.335Z,5.34
2019-01-14T15:59:50.572Z,5.41
2019-01-14T16:02:17.860Z,5.46
2019-01-14T16:04:46.383Z,5.51
2019-01-14T16:07:14.308Z,5.49
2019-01-14T16:09:41.605Z,5.51
2019-01-14T16:12:08.827Z,5.45
2019-01-14T16:14:39.177Z,5.31
2019-01-14T16:17:06.400Z,5.35
2019-01-14T16:19:33.628Z,5.28
2019-01-14T16:22:00.846Z,5.36
2019-01-14T16:24:28.100Z,5.39
2019-01-14T16:26:55.489Z,5.29
2019-01-14T16:29:22.711Z,5.38
2019-01-14T16:31:50.003Z,5.37
2019-01-14T16:34:17.230Z,5.47
2019-01-14T16:36:44.494Z,5.40
2019-01-14T16:39:11.741Z,5.36
2019-01-14T16:41:39.893Z,5.37
2019-01-14T16:44:07.554Z,5.39
2019-01-14T16:46:34.836Z,5.43
2019-01-14T16:49:02.052Z,5.44
2019-01-14T16:51:29.349Z,5.39
2019-01-14T16:53:56.593Z,5.41
2019-01-14T16:56:25.768Z,5.54
2019-01-14T16:58:53.037Z,5.52
2019-01-14T17:01:20.370Z,5.55
2019-01-14T17:03:47.958Z,5.62
2019-01-14T17:06:15.241Z,5.57
2019-01-14T17:08:42.488Z,5.61
2019-01-14T17:11:09.742Z,5.64
2019-01-14T17:13:37.096Z,5.66
2019-01-14T17:16:04.295Z,5.70
2019-01-14T17:18:31.993Z,5.66
2019-01-14T17:20:59.359Z,5.71
2019-01-14T17:23:26.933Z,5.76
2019-01-14T17:25:54.218Z,5.73
2019-01-14T17:28:21.492Z,5.71
2019-01-14T17:30:48.712Z,5.70
2019-01-14T17:33:15.965Z,5.70
2019-01-14T17:35:43.182Z,5.72
2019-01-14T17:38:10.670Z,5.71
2019-01-14T17:40:38.134Z,5.72
2019-01-14T17:43:05.559Z,5.75
2019-01-14T17:45:33.890Z,5.78
2019-01-14T17:48:01.126Z,5.80
2019-01-14T17:50:28.340Z,5.78
2019-01-14T17:52:56.065Z,5.75
2019-01-14T17:55:23.403Z,5.84
2019-01-14T17:57:50.697Z,5.84
2019-01-14T18:00:25.267Z,5.78
2019-01-14T18:02:52.496Z,5.78
2019-01-14T18:05:19.851Z,5.85
2019-01-14T18:07:47.281Z,5.83
2019-01-14T18:10:15.682Z,5.87
2019-01-14T18:12:42.938Z,5.91
2019-01-14T18:15:10.553Z,5.84
2019-01-14T18:17:37.773Z,5.76
2019-01-14T18:20:06.787Z,5.74
2019-01-14T18:22:34.110Z,5.81
2019-01-14T18:25:01.363Z,5.93
2019-01-14T18:27:28.611Z,5.82
2019-01-14T18:29:56.129Z,5.84
2019-01-14T18:32:23.440Z,5.89
2019-01-14T18:34:50.701Z,5.87
2019-01-14T18:37:17.946Z,5.84
2019-01-14T18:39:45.320Z,5.89
2019-01-14T18:42:12.650Z,5.85
2019-01-14T18:44:39.903Z,5.86
2019-01-14T18:47:07.190Z,5.98
2019-01-14T18:49:34.415Z,5.90
2019-01-14T18:52:01.722Z,5.97
2019-01-14T18:54:29.032Z,5.97
2019-01-14T18:56:56.350Z,5.96
2019-01-14T18:59:23.749Z,5.99
2019-01-14T19:01:51.017Z,6.00
2019-01-14T19:04:18.360Z,5.99
2019-01-14T19:06:45.725Z,5.91
2019-01-14T19:09:13.099Z,5.91
2019-01-14T19:11:40.442Z,5.84
2019-01-14T19:14:07.691Z,5.86
2019-01-14T19:16:34.944Z,5.96
2019-01-14T19:19:02.277Z,5.91
2019-01-14T19:21:29.828Z,5.83
2019-01-14T19:23:57.090Z,5.73
2019-01-14T19:26:24.597Z,5.75
2019-01-14T19:28:51.854Z,5.74
2019-01-14T19:31:19.111Z,5.82
2019-01-14T19:33:46.378Z,5.75
2019-01-14T19:36:13.668Z,5.94
2019-01-14T19:38:41.086Z,5.99
2019-01-14T19:41:10.297Z,5.92
2019-01-14T19:43:37.553Z,5.87
2019-01-14T19:46:04.812Z,5.92
2019-01-14T19:48:32.025Z,5.98
2019-01-14T19:50:59.321Z,6.01
2019-01-14T19:53:26.535Z,6.07
2019-01-14T19:55:53.762Z,6.14
2019-01-14T19:58:21.075Z,6.09
2019-01-14T20:00:48.286Z,6.15
2019-01-14T20:03:15.510Z,6.08
2019-01-14T20:05:42.836Z,6.01
2019-01-14T20:08:10.608Z,6.01
2019-01-14T20:10:37.842Z,5.93
2019-01-14T20:13:05.144Z,5.91
2019-01-14T20:15:32.413Z,5.85
2019-01-14T20:18:01.846Z,5.82
2019-01-14T20:20:29.132Z,5.84
2019-01-14T20:22:58.452Z,5.90
2019-01-14T20:25:25.897Z,5.86
2019-01-14T20:27:53.316Z,5.86
2019-01-14T20:30:22.218Z,5.92
2019-01-14T20:32:49.586Z,6.01
2019-01-14T20:35:16.863Z,5.95
2019-01-14T20:37:45.222Z,5.88
2019-01-14T20:40:13.430Z,5.90
2019-01-14T20:42:41.077Z,5.91
2019-01-14T20:45:08.911Z,5.86
2019-01-14T20:47:36.141Z,5.92
2019-01-14T20:50:05.314Z,5.79
2019-01-14T20:52:32.952Z,5.62
2019-01-14T20:55:01.631Z,5.63
2019-01-14T20:57:29.157Z,5.52
2019-01-14T20:59:56.399Z,5.56
2019-01-14T21:02:23.650Z,5.68
2019-01-14T21:04:50.912Z,5.68
2019-01-14T21:07:18.149Z,5.67
2019-01-14T21:09:45.383Z,5.64
2019-01-14T21:12:12.652Z,5.63
2019-01-14T21:14:39.895Z,5.66
2019-01-14T21:17:07.223Z,5.69
2019-01-14T21:19:34.459Z,5.66
2019-01-14T21:22:01.699Z,5.67
2019-01-14T21:24:28.911Z,5.74
2019-01-14T21:26:56.220Z,5.78
2019-01-14T21:29:26.016Z,5.78
2019-01-14T21:31:52.613Z,5.73
2019-01-14T21:34:19.940Z,5.77
2019-01-14T21:36:47.190Z,5.72
2019-01-14T21:39:14.533Z,5.73
2019-01-14T21:41:41.745Z,5.70
2019-01-14T21:44:08.945Z,5.74
2019-01-14T21:46:36.216Z,5.71
2019-01-14T21:49:03.548Z,5.65
2019-01-14T21:51:30.770Z,5.71
2019-01-14T21:53:58.019Z,5.73
2019-01-14T21:56:27.446Z,5.73
2019-01-14T21:58:54.685Z,5.77
2019-01-14T22:01:21.892Z,5.70
2019-01-14T22:03:49.110Z,5.71
2019-01-14T22:06:16.362Z,5.77
2019-01-14T22:08:43.595Z,5.83
2019-01-14T22:11:10.804Z,5.85
2019-01-14T22:13:38.043Z,5.83
2019-01-14T22:16:05.247Z,5.91
2019-01-14T22:18:32.454Z,5.92
2019-01-14T22:20:59.706Z,5.89
2019-01-14T22:23:27.016Z,5.86
2019-01-14T22:25:54.241Z,5.91
2019-01-14T22:28:21.500Z,5.96
2019-01-14T22:30:48.771Z,5.98
2019-01-14T22:33:16.016Z,5.98
2019-01-14T22:35:43.229Z,5.98
2019-01-14T22:38:10.503Z,5.99
2019-01-14T22:40:37.754Z,5.62
2019-01-14T22:43:04.963Z,5.69
2019-01-14T22:45:32.228Z,5.71
2019-01-14T22:47:59.453Z,5.63
2019-01-14T22:50:26.673Z,5.67
2019-01-14T22:52:53.959Z,5.66
2019-01-14T22:55:21.171Z,5.59
2019-01-14T22:57:48.388Z,5.60
2019-01-14T23:01:00.557Z,5.45
2019-01-14T23:03:27.785Z,5.46
2019-01-14T23:05:54.997Z,5.36
2019-01-14T23:08:22.248Z,5.50
2019-01-14T23:10:50.843Z,5.46
2019-01-14T23:13:18.375Z,5.46
2019-01-14T23:15:45.595Z,5.46
2019-01-14T23:18:12.811Z,5.52
2019-01-14T23:20:40.100Z,5.45
2019-01-14T23:23:07.315Z,5.53
2019-01-14T23:25:34.539Z,5.59
2019-01-14T23:28:01.817Z,5.53
2019-01-14T23:30:29.359Z,5.54
2019-01-14T23:32:56.574Z,5.53
2019-01-14T23:35:23.824Z,5.54
2019-01-14T23:37:51.058Z,5.57
2019-01-14T23:40:18.271Z,5.59
2019-01-14T23:42:45.616Z,5.57
2019-01-14T23:45:12.818Z,5.53
2019-01-14T23:47:40.036Z,5.56
2019-01-14T23:50:07.521Z,5.47
2019-01-14T23:52:34.724Z,5.52
2019-01-14T23:55:01.952Z,5.56
2019-01-14T23:57:29.177Z,5.60
2019-01-14T23:59:56.439Z,5.53
